Time;durP1;ratioP1;P1;durP2;ratioP2;P2;SDS_P1;SDS_P2;PMS_P1;PMS_P2;Temp;Humidity;BMP_temperature;BMP_pressure;BME280_temperature;BME280_humidity;BME280_pressure;Samples;Min_cycle;Max_cycle;Signal;HPM_P1;HPM_P2
2022/01/19 00:00:59;;;;;;;;;;;5.10;99.90;;;;;;5054945;28;19927;-74
2022/01/19 00:03:25;;;;;;;;;;;4.20;99.90;;;;;;5054657;28;19938;-76
2022/01/19 00:05:51;;;;;;;;;;;4.60;99.90;;;;;;5054573;28;19921;-74
2022/01/19 00:08:19;;;;;;;;;;;4.20;99.90;;;;;;5054709;28;19921;-74
2022/01/19 00:10:45;;;;;;;;;;;4.80;99.90;;;;;;5054750;28;20023;-75
2022/01/19 00:13:11;;;;;;;;;;;4.80;99.90;;;;;;5054571;28;19931;-74
2022/01/19 00:15:37;;;;;;;;;;;5.10;99.90;;;;;;5054439;28;19920;-74
2022/01/19 00:18:03;;;;;;;;;;;4.20;99.90;;;;;;5053049;28;20379;-73
2022/01/19 00:20:30;;;;;;;;;;;4.20;99.90;;;;;;5052908;28;19927;-75
2022/01/19 00:22:56;;;;;;;;;;;5.80;99.90;;;;;;5054527;28;20371;-74
2022/01/19 00:25:22;;;;;;;;;;;4.20;99.90;;;;;;5052971;28;19920;-77
2022/01/19 00:27:47;;;;;;;;;;;4.70;99.90;;;;;;5054092;28;19963;-77
2022/01/19 00:30:14;;;;;;;;;;;4.20;99.90;;;;;;5054052;28;19920;-76
2022/01/19 00:32:39;;;;;;;;;;;4.20;99.90;;;;;;5054087;28;19920;-78
2022/01/19 00:35:06;;;;;;;;;;;5.10;99.90;;;;;;5054351;28;19942;-74
2022/01/19 00:37:31;;;;;;;;;;;2.50;99.90;;;;;;5054235;28;19939;-73
2022/01/19 00:39:57;;;;;;;;;;;4.20;99.90;;;;;;5054104;28;19921;-74
2022/01/19 00:42:22;;;;;;;;;;;5.10;99.90;;;;;;5054069;28;20376;-76
2022/01/19 00:44:48;;;;;;;;;;;4.20;99.90;;;;;;5053906;28;19968;-74
2022/01/19 00:47:14;;;;;;;;;;;4.20;99.90;;;;;;5053818;28;19921;-74
2022/01/19 00:49:42;;;;;;;;;;;4.20;99.90;;;;;;5054094;28;19920;-75
2022/01/19 00:52:07;;;;;;;;;;;5.60;99.90;;;;;;5053943;28;19968;-76
2022/01/19 00:54:33;;;;;;;;;;;5.20;99.90;;;;;;5053967;28;20315;-76
2022/01/19 00:56:58;;;;;;;;;;;4.60;99.90;;;;;;5053988;28;19928;-74
2022/01/19 00:59:24;;;;;;;;;;;4.20;99.90;;;;;;5053787;28;20015;-74
2022/01/19 01:01:50;;;;;;;;;;;6.00;99.90;;;;;;5053298;28;19920;-75
2022/01/19 01:04:17;;;;;;;;;;;4.10;99.90;;;;;;5053618;28;19991;-76
2022/01/19 01:06:42;;;;;;;;;;;4.70;99.90;;;;;;5053782;28;19943;-74
2022/01/19 01:09:08;;;;;;;;;;;5.20;99.90;;;;;;5053565;28;20371;-74
2022/01/19 01:11:36;;;;;;;;;;;4.50;99.90;;;;;;5052824;28;19920;-77
2022/01/19 01:16:35;;;;;;;;;;;2.80;99.90;;;;;;5052625;28;19970;-75
2022/01/19 01:19:02;;;;;;;;;;;4.10;99.90;;;;;;5051940;28;19921;-73
2022/01/19 01:21:28;;;;;;;;;;;4.70;99.90;;;;;;5053607;28;19925;-73
2022/01/19 01:23:53;;;;;;;;;;;4.10;99.90;;;;;;5053634;28;20015;-77
2022/01/19 01:26:19;;;;;;;;;;;4.40;99.90;;;;;;5053542;28;19921;-74
2022/01/19 01:28:44;;;;;;;;;;;5.50;99.90;;;;;;5053469;28;20522;-74
2022/01/19 01:31:10;;;;;;;;;;;4.10;99.90;;;;;;5085752;28;19920;-74
2022/01/19 01:33:36;;;;;;;;;;;5.60;99.90;;;;;;5052431;28;20283;-75
2022/01/19 01:36:02;;;;;;;;;;;4.10;99.90;;;;;;5053537;28;19921;-74
2022/01/19 01:38:28;;;;;;;;;;;4.10;99.90;;;;;;5053482;28;19920;-74
2022/01/19 01:40:54;;;;;;;;;;;5.50;99.90;;;;;;5053501;28;19928;-75
2022/01/19 01:43:19;;;;;;;;;;;4.10;99.90;;;;;;5085984;28;19921;-76
2022/01/19 01:45:48;;;;;;;;;;;4.10;99.90;;;;;;5053286;28;19928;-76
2022/01/19 01:48:20;;;;;;;;;;;3.90;99.90;;;;;;5053277;28;19921;-78
2022/01/19 01:53:32;;;;;;;;;;;4.00;99.90;;;;;;5053351;28;20395;-74
2022/01/19 01:56:03;;;;;;;;;;;5.10;99.90;;;;;;5053359;28;19927;-74
2022/01/19 01:58:30;;;;;;;;;;;4.00;99.90;;;;;;5053175;28;19921;-73
2022/01/19 02:00:56;;;;;;;;;;;5.30;99.90;;;;;;5053213;28;19963;-75
2022/01/19 02:03:22;;;;;;;;;;;4.50;99.90;;;;;;5053365;28;19975;-77
2022/01/19 02:06:27;;;;;;;;;;;4.00;99.90;;;;;;5053226;28;19920;-73
2022/01/19 02:08:44;;;;;;;;;;;4.30;99.90;;;;;;5052686;28;20261;-74
2022/01/19 02:21:37;;;;;;;;;;;5.30;99.90;;;;;;5056887;28;19928;-78
2022/01/19 02:22:00;;;;;;;;;;;4.50;99.90;;;;;;5056487;28;19978;-74
2022/01/19 02:24:31;;;;;;;;;;;4.10;99.90;;;;;;5056753;28;19983;-74
2022/01/19 02:27:14;;;;;;;;;;;4.10;99.90;;;;;;5056245;28;20330;-73
2022/01/19 02:40:25;;;;;;;;;;;5.70;99.90;;;;;;5056235;28;20398;-74
2022/01/19 02:43:05;;;;;;;;;;;4.30;99.90;;;;;;5089053;28;19920;-74
2022/01/19 02:51:01;;;;;;;;;;;4.20;99.90;;;;;;5056020;28;19920;-74
2022/01/19 02:53:26;;;;;;;;;;;4.20;99.90;;;;;;5055981;28;20398;-77
2022/01/19 02:55:52;;;;;;;;;;;4.10;99.90;;;;;;5054748;28;20003;-77
2022/01/19 02:58:20;;;;;;;;;;;4.30;99.90;;;;;;5055867;28;19927;-74
2022/01/19 03:08:43;;;;;;;;;;;4.00;99.90;;;;;;5054427;28;19973;-76
2022/01/19 03:09:03;;;;;;;;;;;4.00;99.90;;;;;;5055461;28;19920;-74
2022/01/19 03:11:29;;;;;;;;;;;5.00;99.90;;;;;;5055805;28;19920;-74
2022/01/19 03:13:54;;;;;;;;;;;3.90;99.90;;;;;;5055752;28;20414;-77
2022/01/19 03:16:20;;;;;;;;;;;3.80;99.90;;;;;;5055689;28;19920;-74
2022/01/19 03:18:46;;;;;;;;;;;3.80;99.90;;;;;;5055579;28;19925;-75
2022/01/19 03:21:12;;;;;;;;;;;3.80;99.90;;;;;;5055640;28;19921;-75
2022/01/19 03:23:38;;;;;;;;;;;3.80;99.90;;;;;;5055598;28;20290;-75
2022/01/19 03:26:07;;;;;;;;;;;3.80;99.90;;;;;;5086749;28;19920;-74
2022/01/19 03:28:33;;;;;;;;;;;5.40;99.90;;;;;;5088065;28;19972;-74
2022/01/19 03:30:59;;;;;;;;;;;4.80;99.90;;;;;;5055458;28;19988;-76
2022/01/19 03:33:25;;;;;;;;;;;5.00;99.90;;;;;;5055232;28;20391;-76
2022/01/19 03:35:51;;;;;;;;;;;3.70;99.90;;;;;;5055335;28;19920;-76
2022/01/19 03:38:16;;;;;;;;;;;5.40;99.90;;;;;;5055301;28;19925;-75
2022/01/19 03:40:42;;;;;;;;;;;5.30;99.90;;;;;;5055287;28;19927;-76
2022/01/19 03:43:08;;;;;;;;;;;4.20;99.90;;;;;;5055177;28;20338;-74
2022/01/19 03:45:34;;;;;;;;;;;3.60;99.90;;;;;;5055011;28;19920;-73
2022/01/19 03:48:29;;;;;;;;;;;3.90;99.90;;;;;;5054921;28;20483;-75
2022/01/19 03:50:54;;;;;;;;;;;5.00;99.90;;;;;;5087258;28;19921;-73
2022/01/19 03:53:20;;;;;;;;;;;4.50;99.90;;;;;;5054990;28;19921;-74
2022/01/19 03:55:45;;;;;;;;;;;4.70;99.90;;;;;;5054873;28;20019;-76
2022/01/19 03:58:11;;;;;;;;;;;3.50;99.90;;;;;;5053923;28;19924;-74
2022/01/19 04:00:41;;;;;;;;;;;3.50;99.90;;;;;;5054694;28;19975;-74
2022/01/19 04:03:09;;;;;;;;;;;3.50;99.90;;;;;;5054923;28;19921;-73
2022/01/19 04:05:43;;;;;;;;;;;4.40;99.90;;;;;;5054782;28;19921;-74
2022/01/19 04:08:09;;;;;;;;;;;3.40;99.90;;;;;;5087303;28;20007;-74
2022/01/19 04:10:35;;;;;;;;;;;4.70;99.90;;;;;;5054718;28;20277;-75
2022/01/19 04:15:55;;;;;;;;;;;3.90;99.90;;;;;;5012607;28;19925;-74
2022/01/19 04:18:21;;;;;;;;;;;5.00;99.90;;;;;;5012726;28;20381;-74
2022/01/19 04:20:51;;;;;;;;;;;3.70;99.90;;;;;;5012602;28;20495;-76
2022/01/19 04:23:18;;;;;;;;;;;3.40;99.90;;;;;;5012553;28;20412;-73
2022/01/19 04:25:43;;;;;;;;;;;4.70;99.90;;;;;;5028682;28;20335;-78
2022/01/19 04:28:09;;;;;;;;;;;3.30;99.90;;;;;;5012458;28;19921;-74
2022/01/19 04:30:35;;;;;;;;;;;4.40;99.90;;;;;;4995769;28;20414;-75
2022/01/19 04:33:10;;;;;;;;;;;3.30;99.90;;;;;;5012330;28;19985;-74
2022/01/19 04:35:54;;;;;;;;;;;4.00;99.90;;;;;;5012435;28;19994;-74
2022/01/19 04:54:51;;;;;;;;;;;3.20;99.90;;;;;;5012061;28;19922;-74
2022/01/19 05:05:28;;;;;;;;;;;3.90;99.90;;;;;;5011923;28;20032;-74
2022/01/19 05:08:04;;;;;;;;;;;3.00;99.90;;;;;;4995317;28;20352;-75
2022/01/19 05:13:34;;;;;;;;;;;3.10;99.90;;;;;;5004159;28;20015;-74
2022/01/19 05:16:00;;;;;;;;;;;4.60;99.90;;;;;;5011702;28;19921;-75
2022/01/19 05:18:26;;;;;;;;;;;3.70;99.90;;;;;;4995705;28;19976;-74
2022/01/19 05:20:51;;;;;;;;;;;3.50;99.90;;;;;;5011697;28;20419;-74
2022/01/19 05:23:17;;;;;;;;;;;4.70;99.90;;;;;;4995622;28;20012;-74
2022/01/19 05:25:43;;;;;;;;;;;4.20;99.90;;;;;;4978428;28;20329;-73
2022/01/19 05:28:09;;;;;;;;;;;3.10;99.90;;;;;;5032023;28;20062;-72
2022/01/19 05:30:35;;;;;;;;;;;4.60;99.90;;;;;;5052358;28;19952;-74
2022/01/19 05:33:00;;;;;;;;;;;3.60;99.90;;;;;;5085997;28;20287;-76
2022/01/19 05:35:27;;;;;;;;;;;4.90;99.90;;;;;;5053578;28;19974;-77
2022/01/19 05:37:53;;;;;;;;;;;1.80;99.90;;;;;;5086230;28;19921;-74
2022/01/19 05:40:19;;;;;;;;;;;4.70;99.90;;;;;;5052526;28;20311;-74
2022/01/19 05:42:47;;;;;;;;;;;4.20;99.90;;;;;;5086023;28;20039;-74
2022/01/19 05:45:13;;;;;;;;;;;3.30;99.90;;;;;;5053278;28;19944;-74
2022/01/19 05:47:38;;;;;;;;;;;3.20;99.90;;;;;;5052307;28;20275;-73
2022/01/19 05:50:04;;;;;;;;;;;4.30;99.90;;;;;;5057312;28;19924;-76
2022/01/19 05:52:30;;;;;;;;;;;3.30;99.90;;;;;;5057322;28;19920;-73
2022/01/19 05:54:55;;;;;;;;;;;4.10;99.90;;;;;;5057348;28;20342;-77
2022/01/19 05:57:21;;;;;;;;;;;3.80;99.90;;;;;;5057134;28;19925;-75
2022/01/19 05:59:47;;;;;;;;;;;5.50;99.90;;;;;;5057150;28;19920;-75
2022/01/19 06:02:12;;;;;;;;;;;3.60;99.90;;;;;;5056925;28;20378;-77
2022/01/19 06:04:38;;;;;;;;;;;3.40;99.90;;;;;;5056864;28;19973;-73
2022/01/19 06:07:04;;;;;;;;;;;4.40;99.90;;;;;;5057046;28;20371;-75
2022/01/19 06:09:34;;;;;;;;;;;3.40;99.90;;;;;;5057166;28;20083;-74
2022/01/19 06:12:04;;;;;;;;;;;3.40;99.90;;;;;;5056952;28;19928;-78
2022/01/19 06:14:29;;;;;;;;;;;3.40;99.90;;;;;;5072515;28;19927;-78
2022/01/19 06:16:55;;;;;;;;;;;3.70;99.90;;;;;;5056753;28;19925;-75
2022/01/19 06:19:21;;;;;;;;;;;4.90;99.90;;;;;;5056682;28;20303;-74
2022/01/19 06:21:46;;;;;;;;;;;3.50;99.90;;;;;;5056851;28;20368;-74
2022/01/19 06:24:12;;;;;;;;;;;3.50;99.90;;;;;;5056806;28;20021;-73
2022/01/19 06:26:38;;;;;;;;;;;3.50;99.90;;;;;;5056494;28;19921;-73
2022/01/19 06:29:04;;;;;;;;;;;3.50;99.90;;;;;;5056489;28;19971;-76
2022/01/19 06:31:30;;;;;;;;;;;3.50;99.90;;;;;;5056713;28;19971;-75
2022/01/19 06:33:55;;;;;;;;;;;3.50;99.90;;;;;;5055270;28;19925;-74
2022/01/19 06:36:21;;;;;;;;;;;3.50;99.90;;;;;;5056734;28;19928;-72
2022/01/19 06:38:46;;;;;;;;;;;4.00;99.90;;;;;;5056545;28;20011;-74
2022/01/19 06:41:12;;;;;;;;;;;4.60;99.90;;;;;;5056413;28;19928;-74
2022/01/19 06:43:37;;;;;;;;;;;4.80;99.90;;;;;;5056383;28;19920;-74
2022/01/19 06:46:03;;;;;;;;;;;5.10;99.90;;;;;;5055120;28;20291;-74
2022/01/19 06:48:29;;;;;;;;;;;3.60;99.90;;;;;;5056023;28;20365;-74
2022/01/19 06:50:54;;;;;;;;;;;5.20;99.90;;;;;;5055392;28;19927;-75
2022/01/19 06:53:20;;;;;;;;;;;4.40;99.90;;;;;;5056232;28;19966;-74
2022/01/19 06:55:46;;;;;;;;;;;3.50;99.90;;;;;;5088831;28;19964;-75
2022/01/19 06:58:12;;;;;;;;;;;4.10;99.90;;;;;;5056105;28;19990;-76
2022/01/19 07:00:38;;;;;;;;;;;3.50;99.90;;;;;;5054845;28;19921;-74
2022/01/19 07:03:03;;;;;;;;;;;3.60;99.90;;;;;;5055869;28;19921;-74
2022/01/19 07:05:29;;;;;;;;;;;5.10;99.90;;;;;;5055719;28;19920;-77
2022/01/19 07:07:57;;;;;;;;;;;3.50;99.90;;;;;;5056007;28;19920;-73
2022/01/19 07:10:23;;;;;;;;;;;4.50;99.90;;;;;;5055888;28;19920;-74
2022/01/19 07:12:48;;;;;;;;;;;4.90;99.90;;;;;;5055867;28;19925;-74
2022/01/19 07:15:14;;;;;;;;;;;3.50;99.90;;;;;;5054810;28;19928;-74
2022/01/19 07:17:40;;;;;;;;;;;3.50;99.90;;;;;;5055676;28;19925;-77
2022/01/19 07:20:06;;;;;;;;;;;4.60;99.90;;;;;;5054555;28;20307;-75
2022/01/19 07:22:32;;;;;;;;;;;3.50;99.90;;;;;;5055661;28;19921;-75
2022/01/19 07:24:59;;;;;;;;;;;3.50;99.90;;;;;;5055546;28;19924;-77
2022/01/19 07:27:25;;;;;;;;;;;5.20;99.90;;;;;;5053231;28;20339;-74
2022/01/19 07:29:50;;;;;;;;;;;3.50;99.90;;;;;;5055477;28;19921;-74
2022/01/19 07:32:16;;;;;;;;;;;3.50;99.90;;;;;;5055135;28;20356;-76
2022/01/19 07:34:42;;;;;;;;;;;5.30;99.90;;;;;;5055031;28;19920;-74
2022/01/19 07:37:07;;;;;;;;;;;3.80;99.90;;;;;;5055097;28;19927;-74
2022/01/19 07:39:33;;;;;;;;;;;3.50;99.90;;;;;;5087419;28;19932;-74
2022/01/19 07:41:59;;;;;;;;;;;5.20;99.90;;;;;;5088002;28;20031;-73
2022/01/19 07:44:24;;;;;;;;;;;3.40;99.90;;;;;;5055143;28;19920;-74
2022/01/19 07:46:51;;;;;;;;;;;3.40;99.90;;;;;;5087419;28;19943;-75
2022/01/19 07:49:17;;;;;;;;;;;4.30;99.90;;;;;;5055153;28;19971;-75
2022/01/19 07:51:43;;;;;;;;;;;3.80;99.90;;;;;;5054797;28;19920;-74
2022/01/19 07:54:08;;;;;;;;;;;3.50;99.90;;;;;;5087672;28;19928;-73
2022/01/19 07:56:34;;;;;;;;;;;3.40;99.90;;;;;;5054992;28;19924;-74
2022/01/19 07:58:59;;;;;;;;;;;3.40;99.90;;;;;;5054771;28;19924;-77
2022/01/19 08:01:30;;;;;;;;;;;3.20;99.90;;;;;;5054749;28;20014;-75
2022/01/19 08:03:56;;;;;;;;;;;3.30;99.90;;;;;;5070325;28;19931;-73
2022/01/19 08:06:30;;;;;;;;;;;3.30;99.90;;;;;;5069495;28;19920;-76
2022/01/19 08:08:56;;;;;;;;;;;3.30;99.90;;;;;;5087381;28;19924;-74
2022/01/19 08:11:22;;;;;;;;;;;3.30;99.90;;;;;;5054378;28;20023;-73
2022/01/19 08:13:47;;;;;;;;;;;3.30;99.90;;;;;;5052910;28;19928;-72
2022/01/19 08:16:13;;;;;;;;;;;3.30;99.90;;;;;;5053609;28;20368;-76
2022/01/19 08:18:39;;;;;;;;;;;3.30;99.90;;;;;;5053594;28;19927;-75
2022/01/19 08:21:04;;;;;;;;;;;3.30;99.90;;;;;;5054089;28;19927;-77
2022/01/19 08:23:30;;;;;;;;;;;4.60;99.90;;;;;;5053976;28;19966;-74
2022/01/19 08:25:56;;;;;;;;;;;3.30;99.90;;;;;;5053978;28;19925;-72
2022/01/19 08:28:21;;;;;;;;;;;3.20;99.90;;;;;;5054116;28;20368;-73
2022/01/19 08:30:47;;;;;;;;;;;4.70;99.90;;;;;;5054306;28;20260;-77
2022/01/19 08:33:13;;;;;;;;;;;3.80;99.90;;;;;;5053919;28;19921;-74
2022/01/19 08:35:39;;;;;;;;;;;3.20;99.90;;;;;;5054173;28;20338;-78
2022/01/19 08:38:04;;;;;;;;;;;5.00;99.90;;;;;;5086930;28;20042;-76
2022/01/19 08:40:30;;;;;;;;;;;3.40;99.90;;;;;;5054128;28;19924;-75
2022/01/19 08:42:56;;;;;;;;;;;4.00;99.90;;;;;;5054192;28;19924;-74
2022/01/19 08:45:22;;;;;;;;;;;3.20;99.90;;;;;;5086746;28;19921;-75
2022/01/19 08:47:48;;;;;;;;;;;2.10;99.90;;;;;;5086701;28;19994;-74
2022/01/19 08:50:15;;;;;;;;;;;3.90;99.90;;;;;;5053986;28;19927;-73
2022/01/19 08:52:41;;;;;;;;;;;3.30;99.90;;;;;;5053281;28;20326;-75
2022/01/19 08:55:07;;;;;;;;;;;4.60;99.90;;;;;;5054076;28;20331;-74
2022/01/19 08:57:32;;;;;;;;;;;3.20;99.90;;;;;;5053852;28;19974;-75
2022/01/19 08:59:58;;;;;;;;;;;3.20;99.90;;;;;;5053808;28;19921;-74
2022/01/19 09:02:24;;;;;;;;;;;3.60;99.90;;;;;;5086580;28;19928;-75
2022/01/19 09:04:49;;;;;;;;;;;3.20;99.90;;;;;;5053603;28;20403;-75
2022/01/19 09:07:15;;;;;;;;;;;4.40;99.90;;;;;;5053604;28;19921;-76
2022/01/19 09:09:41;;;;;;;;;;;3.70;99.90;;;;;;5053329;28;20332;-72
2022/01/19 09:12:07;;;;;;;;;;;3.50;99.90;;;;;;5052828;28;19928;-74
2022/01/19 09:14:32;;;;;;;;;;;3.20;99.90;;;;;;5052731;28;19921;-73
2022/01/19 09:16:58;;;;;;;;;;;3.20;99.90;;;;;;5053548;28;19920;-74
2022/01/19 09:19:24;;;;;;;;;;;3.30;99.90;;;;;;5053590;28;19920;-75
2022/01/19 09:21:50;;;;;;;;;;;3.70;99.90;;;;;;5052878;28;19928;-78
2022/01/19 09:24:17;;;;;;;;;;;3.30;99.90;;;;;;5052631;28;20342;-75
2022/01/19 09:26:43;;;;;;;;;;;4.30;99.90;;;;;;5085158;28;19974;-75
2022/01/19 09:29:09;;;;;;;;;;;3.30;99.90;;;;;;5052701;28;20371;-74
2022/01/19 09:31:35;;;;;;;;;;;3.30;99.90;;;;;;5052414;28;19959;-74
2022/01/19 09:34:14;;;;;;;;;;;3.30;99.90;;;;;;5053339;28;19921;-74
2022/01/19 09:36:46;;;;;;;;;;;4.50;99.90;;;;;;5085903;28;19966;-76
2022/01/19 09:39:13;;;;;;;;;;;4.10;99.90;;;;;;5086084;28;20330;-74
2022/01/19 09:41:39;;;;;;;;;;;3.30;99.90;;;;;;5053356;28;19921;-74
2022/01/19 09:44:05;;;;;;;;;;;4.90;99.90;;;;;;5053225;28;19920;-72
2022/01/19 09:46:30;;;;;;;;;;;3.40;99.90;;;;;;5053178;28;19928;-74
2022/01/19 09:48:58;;;;;;;;;;;4.20;99.90;;;;;;5053278;28;19975;-74
2022/01/19 09:51:24;;;;;;;;;;;5.20;99.90;;;;;;5086107;28;19970;-75
2022/01/19 09:53:49;;;;;;;;;;;3.90;99.90;;;;;;5053202;28;19920;-74
2022/01/19 09:56:16;;;;;;;;;;;4.70;99.90;;;;;;5053334;28;19921;-76
2022/01/19 09:58:42;;;;;;;;;;;4.00;99.90;;;;;;5051760;28;19975;-74
2022/01/19 10:01:08;;;;;;;;;;;5.00;99.90;;;;;;5053355;28;19992;-75
2022/01/19 10:03:33;;;;;;;;;;;3.40;99.90;;;;;;5053159;28;19920;-74
2022/01/19 10:05:59;;;;;;;;;;;3.40;99.90;;;;;;5085362;28;19921;-74
2022/01/19 10:08:44;;;;;;;;;;;3.40;99.90;;;;;;5053137;28;19921;-76
2022/01/19 10:11:16;;;;;;;;;;;3.50;99.90;;;;;;5053144;28;20386;-73
2022/01/19 10:19:20;;;;;;;;;;;4.10;99.90;;;;;;5052087;28;19921;-73
2022/01/19 10:22:01;;;;;;;;;;;5.50;99.90;;;;;;5085552;28;19924;-76
2022/01/19 10:24:46;;;;;;;;;;;3.70;99.90;;;;;;5051757;28;19924;-75
2022/01/19 10:27:18;;;;;;;;;;;3.70;99.90;;;;;;5052734;28;19920;-74
2022/01/19 10:29:44;;;;;;;;;;;3.80;99.90;;;;;;5053090;28;20015;-74
2022/01/19 10:32:09;;;;;;;;;;;4.20;99.90;;;;;;5053035;28;20071;-73
2022/01/19 10:34:35;;;;;;;;;;;5.20;99.90;;;;;;5054073;28;19925;-76
2022/01/19 10:37:02;;;;;;;;;;;4.40;99.90;;;;;;5056513;28;20371;-74
2022/01/19 10:39:49;;;;;;;;;;;5.50;99.90;;;;;;5056447;28;20405;-74
2022/01/19 10:42:18;;;;;;;;;;;3.90;99.90;;;;;;5056525;28;20007;-74
2022/01/19 10:44:48;;;;;;;;;;;3.90;99.90;;;;;;5056219;28;19924;-74
2022/01/19 10:47:17;;;;;;;;;;;4.40;99.90;;;;;;5055653;28;19920;-74
2022/01/19 10:49:46;;;;;;;;;;;5.50;99.90;;;;;;5056191;28;19920;-73
2022/01/19 10:52:24;;;;;;;;;;;4.00;99.90;;;;;;5055333;28;19924;-76
2022/01/19 10:54:50;;;;;;;;;;;5.10;99.90;;;;;;5055914;28;20410;-74
2022/01/19 10:57:15;;;;;;;;;;;5.40;99.90;;;;;;5056099;28;20001;-77
2022/01/19 10:59:41;;;;;;;;;;;5.30;99.90;;;;;;5056100;28;20359;-74
2022/01/19 11:02:06;;;;;;;;;;;4.10;99.90;;;;;;5055975;28;19971;-74
2022/01/19 11:04:33;;;;;;;;;;;4.60;99.90;;;;;;5055922;28;19925;-76
2022/01/19 11:06:59;;;;;;;;;;;4.10;99.90;;;;;;5055382;28;19927;-74
2022/01/19 11:09:27;;;;;;;;;;;4.50;99.90;;;;;;5056158;28;20015;-74
2022/01/19 11:11:54;;;;;;;;;;;4.10;99.90;;;;;;5055917;28;19928;-76
2022/01/19 11:14:20;;;;;;;;;;;4.90;99.90;;;;;;5055821;28;20269;-76
2022/01/19 11:16:47;;;;;;;;;;;4.10;99.90;;;;;;5088553;28;19933;-73
2022/01/19 11:19:13;;;;;;;;;;;4.10;99.90;;;;;;5055638;28;20020;-76
2022/01/19 11:21:55;;;;;;;;;;;4.20;99.90;;;;;;5055375;28;19928;-74
2022/01/19 11:24:29;;;;;;;;;;;4.20;99.90;;;;;;5069835;28;19947;-75
2022/01/19 11:26:55;;;;;;;;;;;5.20;99.90;;;;;;5055226;28;19920;-75
2022/01/19 11:29:22;;;;;;;;;;;5.20;99.90;;;;;;5055228;28;19927;-74
2022/01/19 11:31:49;;;;;;;;;;;5.30;99.90;;;;;;5055264;28;19920;-75
2022/01/19 11:34:14;;;;;;;;;;;5.30;99.90;;;;;;5055284;28;19921;-74
2022/01/19 11:36:42;;;;;;;;;;;4.10;99.90;;;;;;5055707;28;19966;-74
2022/01/19 11:39:12;;;;;;;;;;;4.10;99.90;;;;;;5055236;28;19921;-73
2022/01/19 11:41:41;;;;;;;;;;;4.10;99.90;;;;;;5055337;28;19920;-77
2022/01/19 11:44:12;;;;;;;;;;;4.10;99.90;;;;;;5055189;28;20319;-73
2022/01/19 11:46:40;;;;;;;;;;;5.00;99.90;;;;;;5053105;28;19920;-74
2022/01/19 11:49:09;;;;;;;;;;;5.70;99.90;;;;;;5053765;28;19924;-75
2022/01/19 11:51:36;;;;;;;;;;;4.10;99.90;;;;;;5055178;28;19920;-74
2022/01/19 11:54:05;;;;;;;;;;;5.80;99.90;;;;;;5054943;28;19991;-74
2022/01/19 11:56:30;;;;;;;;;;;4.40;99.90;;;;;;5054720;28;20446;-77
2022/01/19 11:59:09;;;;;;;;;;;5.20;99.90;;;;;;5053593;28;19976;-74
2022/01/19 12:01:35;;;;;;;;;;;4.10;99.90;;;;;;5054930;28;19921;-78
2022/01/19 12:04:15;;;;;;;;;;;4.00;99.90;;;;;;5054915;28;19921;-77
2022/01/19 12:06:42;;;;;;;;;;;4.10;99.90;;;;;;5054776;28;19936;-74
2022/01/19 12:09:09;;;;;;;;;;;5.60;99.90;;;;;;5054532;28;19966;-75
2022/01/19 12:11:37;;;;;;;;;;;5.60;99.90;;;;;;5053595;28;19986;-75
2022/01/19 12:14:18;;;;;;;;;;;4.10;99.90;;;;;;5054528;28;19920;-73
2022/01/19 12:17:04;;;;;;;;;;;5.00;99.90;;;;;;5054562;28;19928;-77
2022/01/19 12:19:35;;;;;;;;;;;4.10;99.90;;;;;;5054422;28;19921;-77
2022/01/19 12:22:22;;;;;;;;;;;5.30;99.90;;;;;;5054098;28;19929;-77
2022/01/19 12:24:53;;;;;;;;;;;4.10;99.90;;;;;;5053874;28;19943;-74
2022/01/19 12:27:19;;;;;;;;;;;4.20;99.90;;;;;;5054063;28;20000;-74
2022/01/19 12:29:47;;;;;;;;;;;4.20;99.90;;;;;;5054217;28;20046;-78
2022/01/19 12:32:13;;;;;;;;;;;4.20;99.90;;;;;;5053849;28;20284;-74
2022/01/19 12:34:49;;;;;;;;;;;5.10;99.90;;;;;;5053209;28;19921;-75
2022/01/19 12:37:27;;;;;;;;;;;4.20;99.90;;;;;;5053908;28;19924;-74
2022/01/19 12:39:55;;;;;;;;;;;4.20;99.90;;;;;;5054125;28;19921;-75
2022/01/19 12:42:27;;;;;;;;;;;4.20;99.90;;;;;;5053061;28;19928;-74
2022/01/19 12:44:55;;;;;;;;;;;5.50;99.90;;;;;;5053835;28;19920;-74
2022/01/19 12:47:26;;;;;;;;;;;5.10;99.90;;;;;;5052595;28;20334;-74
2022/01/19 12:49:53;;;;;;;;;;;4.30;99.90;;;;;;5053761;28;19968;-76
2022/01/19 12:52:20;;;;;;;;;;;4.30;99.90;;;;;;5053824;28;19920;-74
2022/01/19 12:54:46;;;;;;;;;;;4.30;99.90;;;;;;5053712;28;20031;-75
2022/01/19 12:57:15;;;;;;;;;;;4.30;99.90;;;;;;5053134;28;19920;-76
2022/01/19 12:59:43;;;;;;;;;;;4.70;99.90;;;;;;5053142;28;19920;-74
2022/01/19 13:02:09;;;;;;;;;;;4.60;99.90;;;;;;5053396;28;19927;-77
2022/01/19 13:04:36;;;;;;;;;;;5.30;99.90;;;;;;5052529;28;20376;-74
2022/01/19 13:07:13;;;;;;;;;;;5.30;99.90;;;;;;5052385;28;19924;-78
2022/01/19 13:09:59;;;;;;;;;;;4.30;99.90;;;;;;5052465;28;20386;-77
2022/01/19 13:12:33;;;;;;;;;;;4.40;99.90;;;;;;5053503;28;19927;-75
2022/01/19 13:14:58;;;;;;;;;;;4.30;99.90;;;;;;5052473;28;19920;-74
2022/01/19 13:17:24;;;;;;;;;;;4.30;99.90;;;;;;5053622;28;19925;-78
2022/01/19 13:19:50;;;;;;;;;;;6.20;99.90;;;;;;5052263;28;19978;-73
2022/01/19 13:22:15;;;;;;;;;;;4.40;99.90;;;;;;5053404;28;19928;-74
2022/01/19 13:24:42;;;;;;;;;;;4.30;99.90;;;;;;5053379;28;19921;-74
2022/01/19 13:27:10;;;;;;;;;;;4.30;99.90;;;;;;5051704;28;20274;-74
2022/01/19 13:29:47;;;;;;;;;;;4.30;99.90;;;;;;5052216;28;20364;-73
2022/01/19 13:32:14;;;;;;;;;;;4.30;99.90;;;;;;5053049;28;19921;-74
2022/01/19 13:34:51;;;;;;;;;;;5.90;99.90;;;;;;5052425;28;20383;-74
2022/01/19 13:37:17;;;;;;;;;;;4.40;99.90;;;;;;5053336;28;19920;-78
2022/01/19 13:39:43;;;;;;;;;;;4.40;99.90;;;;;;5052186;28;19964;-73
2022/01/19 13:42:09;;;;;;;;;;;4.70;99.90;;;;;;5053054;28;19975;-73
2022/01/19 13:44:38;;;;;;;;;;;4.40;99.90;;;;;;5053418;28;19921;-75
2022/01/19 13:47:14;;;;;;;;;;;4.40;99.90;;;;;;5052054;28;19998;-75
2022/01/19 13:49:40;;;;;;;;;;;4.40;99.90;;;;;;5053197;28;19921;-73
2022/01/19 13:52:06;;;;;;;;;;;4.40;99.90;;;;;;5053084;28;20388;-74
2022/01/19 13:54:36;;;;;;;;;;;5.00;99.90;;;;;;5035398;28;19921;-74
2022/01/19 13:57:01;;;;;;;;;;;4.40;99.90;;;;;;5052797;28;19921;-75
2022/01/19 13:59:27;;;;;;;;;;;4.50;99.90;;;;;;5053201;28;20394;-75
2022/01/19 14:02:02;;;;;;;;;;;4.50;99.90;;;;;;5053115;28;19920;-74
2022/01/19 14:04:30;;;;;;;;;;;5.40;99.90;;;;;;5053092;28;19979;-74
2022/01/19 14:07:09;;;;;;;;;;;4.50;99.90;;;;;;5052935;28;19931;-74
2022/01/19 14:09:36;;;;;;;;;;;4.50;99.90;;;;;;5053000;28;19921;-74
2022/01/19 14:12:08;;;;;;;;;;;4.50;99.90;;;;;;5056758;28;20055;-74
2022/01/19 14:14:43;;;;;;;;;;;4.50;99.90;;;;;;5056910;28;19921;-77
2022/01/19 14:17:12;;;;;;;;;;;4.50;99.90;;;;;;5056877;28;20025;-73
2022/01/19 14:19:43;;;;;;;;;;;4.50;99.90;;;;;;5056743;28;19921;-74
2022/01/19 14:22:14;;;;;;;;;;;4.50;99.90;;;;;;5056646;28;19967;-74
2022/01/19 14:24:41;;;;;;;;;;;4.50;99.90;;;;;;5056356;28;19921;-74
2022/01/19 14:27:07;;;;;;;;;;;4.50;99.90;;;;;;5054791;28;20023;-73
2022/01/19 14:29:33;;;;;;;;;;;4.50;99.90;;;;;;5056662;28;19924;-77
2022/01/19 14:31:59;;;;;;;;;;;5.80;99.90;;;;;;5056535;28;19935;-74
2022/01/19 14:34:38;;;;;;;;;;;4.60;99.90;;;;;;5056565;28;19973;-74
2022/01/19 14:37:17;;;;;;;;;;;4.60;99.90;;;;;;5056433;28;20299;-74
2022/01/19 14:39:49;;;;;;;;;;;4.50;99.90;;;;;;5056456;28;19927;-74
2022/01/19 14:42:18;;;;;;;;;;;4.50;99.90;;;;;;5056437;28;19952;-74
2022/01/19 14:44:57;;;;;;;;;;;4.50;99.90;;;;;;5056348;28;19924;-77
2022/01/19 14:47:39;;;;;;;;;;;4.90;99.90;;;;;;5055867;28;20011;-74
2022/01/19 14:50:22;;;;;;;;;;;4.50;99.90;;;;;;5056347;28;20277;-73
2022/01/19 14:52:49;;;;;;;;;;;4.50;99.90;;;;;;5055219;28;19920;-78
2022/01/19 14:55:17;;;;;;;;;;;4.50;99.90;;;;;;5056066;28;19928;-77
2022/01/19 14:57:43;;;;;;;;;;;4.50;99.90;;;;;;5055767;28;19928;-74
2022/01/19 15:00:10;;;;;;;;;;;4.50;99.90;;;;;;5054489;28;19924;-75
2022/01/19 15:02:36;;;;;;;;;;;4.50;99.90;;;;;;5055767;28;19979;-72
2022/01/19 15:05:02;;;;;;;;;;;4.50;99.90;;;;;;5054974;28;19983;-73
2022/01/19 15:07:28;;;;;;;;;;;4.50;99.90;;;;;;5055647;28;19920;-74
2022/01/19 15:09:54;;;;;;;;;;;4.50;99.90;;;;;;5054474;28;19966;-77
2022/01/19 15:12:20;;;;;;;;;;;4.50;99.90;;;;;;5055859;28;20307;-76
2022/01/19 15:14:46;;;;;;;;;;;5.50;99.90;;;;;;5054442;28;19960;-78
2022/01/19 15:17:13;;;;;;;;;;;4.60;99.90;;;;;;5054387;28;19920;-78
2022/01/19 15:19:39;;;;;;;;;;;4.60;99.90;;;;;;5055730;28;20419;-74
2022/01/19 15:22:05;;;;;;;;;;;4.60;99.90;;;;;;5053543;28;19927;-73
2022/01/19 15:24:32;;;;;;;;;;;4.70;99.90;;;;;;5055496;28;19921;-75
2022/01/19 15:26:59;;;;;;;;;;;4.70;99.90;;;;;;5054835;28;20371;-74
2022/01/19 15:29:26;;;;;;;;;;;4.70;99.90;;;;;;5054084;28;19921;-74
2022/01/19 15:31:53;;;;;;;;;;;4.70;99.90;;;;;;5054116;28;19927;-73
2022/01/19 15:34:20;;;;;;;;;;;4.70;99.90;;;;;;5055067;28;20395;-73
2022/01/19 15:36:47;;;;;;;;;;;4.70;99.90;;;;;;5055231;28;19925;-76
2022/01/19 15:39:14;;;;;;;;;;;4.70;99.90;;;;;;5055118;28;20347;-80
2022/01/19 15:41:41;;;;;;;;;;;4.80;99.90;;;;;;5055121;28;20327;-74
2022/01/19 15:44:08;;;;;;;;;;;4.80;99.90;;;;;;5054989;28;20395;-73
2022/01/19 15:46:36;;;;;;;;;;;4.80;99.90;;;;;;5055121;28;19989;-73